Hlavní strana
METAR-TAF:

METAR-TAF

Letiště :

Bamako, Mali

zeměpisná šířka: 12-32N, zeměpisná délka: 007-57W, výška: 380 m

Aktuální stav počasí

Zpráva byla vytvořena před 20 minutami, v 21:30 UTC
Východoseverovýchodní vítr 6 kt
Teplota 22°C
Vlhkost vzduchu 17%
Tlak 1015 hPa
Viditelnost 10 km a více
Žádná oblačnost pod 1500 m, nevyskytují se cumulonimby.

METAR: GABS 222130Z 06006KT CAVOK 22/M04 Q1015 NOSIG

Čas: 21:50 (21:50 UTC)

Předpověď počasí

Zpráva byla vytvořena před 4 hodinami a 50 minutami, v 17:00 UTC
Předpověď platná od 22 v 18 UTC do 23 v 24 UTC
Severoseverovýchodní vítr 6 kt
Viditelnost: 8000 m
Pravděpodobnost 30% :
Dočasný
od 23 v 06 UTC do 23 v 12 UTC
Viditelnost: 4000 m
rozsáhlý prach
Dočasný
od 23 v 08 UTC do 23 v 16 UTC
Východní vítr 16 kt

TAF: GABS 221700Z 2218/2324 03006KT 8000 NSC PROB30 TEMPO 2306/2312 4000 DU TEMPO 2308/2316 08016KT

Stav a předpovědi počasí z více než 4 000 letišť (zprávy METAR a TAF).

Červené a žluté tečky na mapě představují dostupné meteorologické stanice.

Když kurzor umístíte na tečku, zobrazí se název stanice.

Pak kliknutím zobrazíte stav a předpověď počasí.

Chcete-li změnit mapu, kliknutím na zelené tlačítko se znaménkem +mapu přiblížíte, kliknutím na zelené tlačítko se znaménkem – mapu oddálíte a kliknutím na zelené šipky přejdete na sousední mapy.


METAR-TAF: